Time;durP1;ratioP1;P1;durP2;ratioP2;P2;SDS_P1;SDS_P2;PMS_P1;PMS_P2;Temp;Humidity;BMP_temperature;BMP_pressure;BME280_temperature;BME280_humidity;BME280_pressure;Samples;Min_cycle;Max_cycle;Signal;HPM_P1;HPM_P2
2020/12/04 00:00:35;;;;;;;332.60;137.00;;;;;;;-3.54;87.92;98007.45;4209308;82;21199;-78
2020/12/04 00:06:38;;;;;;;308.03;135.83;;;;;;;-3.50;88.34;98016.45;4218162;82;21171;-77
2020/12/04 00:12:40;;;;;;;351.77;148.93;;;;;;;-3.48;88.26;98006.78;4212018;82;21237;-77
2020/12/04 00:18:42;;;;;;;301.90;127.17;;;;;;;-3.28;88.26;97997.67;4177369;84;21245;-78
2020/12/04 00:24:43;;;;;;;290.43;128.37;;;;;;;-3.29;87.87;97987.27;4178024;84;21242;-77
2020/12/04 00:30:45;;;;;;;345.20;147.53;;;;;;;-3.46;87.31;97986.63;4178336;84;21249;-78
2020/12/04 00:36:47;;;;;;;356.03;144.20;;;;;;;-3.54;87.85;97967.31;4176459;84;21597;-77
2020/12/04 00:42:49;;;;;;;335.57;146.37;;;;;;;-3.61;88.09;97962.17;4178761;84;21203;-77
2020/12/04 00:48:50;;;;;;;335.53;141.73;;;;;;;-3.61;87.80;97948.27;4178098;84;21214;-77
2020/12/04 00:54:52;;;;;;;324.37;137.43;;;;;;;-3.67;88.20;97941.48;4175086;84;22465;-77
2020/12/04 01:00:54;;;;;;;316.27;125.93;;;;;;;-3.64;88.27;97947.55;4176970;84;21225;-77
2020/12/04 01:06:55;;;;;;;347.87;143.97;;;;;;;-3.59;88.63;97935.37;4174389;84;21642;-77
2020/12/04 01:12:56;;;;;;;323.90;135.83;;;;;;;-3.64;88.37;97943.53;4179900;84;22219;-77
2020/12/04 01:18:58;;;;;;;320.20;136.33;;;;;;;-3.68;87.89;97944.45;4215560;81;21330;-77
2020/12/04 01:25:00;;;;;;;282.77;125.43;;;;;;;-3.71;87.88;97919.67;4225179;82;21218;-77
2020/12/04 01:31:02;;;;;;;286.70;123.80;;;;;;;-3.88;87.89;97907.53;4214667;82;22339;-77
2020/12/04 01:37:03;;;;;;;300.33;127.43;;;;;;;-3.87;88.06;97903.78;4207764;82;21230;-77
2020/12/04 01:43:05;;;;;;;305.77;131.90;;;;;;;-3.89;88.15;97922.01;4217917;82;21322;-77
2020/12/04 01:49:06;;;;;;;297.33;119.77;;;;;;;-3.94;88.74;97920.80;4225100;82;21183;-77
2020/12/04 01:55:08;;;;;;;259.10;102.90;;;;;;;-3.87;88.80;97921.16;4215118;82;21699;-77
2020/12/04 02:01:13;;;;;;;250.40;102.03;;;;;;;-3.75;89.50;97902.11;4217514;82;21219;-77
2020/12/04 02:07:41;;;;;;;244.87;103.17;;;;;;;-3.64;89.21;97882.55;4213364;82;21225;-78
2020/12/04 02:13:45;;;;;;;221.90;90.47;;;;;;;-3.42;89.30;97873.09;4208565;82;21927;-77
2020/12/04 02:19:46;;;;;;;229.63;102.67;;;;;;;-3.40;88.93;97851.61;4184884;83;21528;-77
2020/12/04 02:25:50;;;;;;;212.73;89.90;;;;;;;-3.54;88.55;97863.55;4194834;83;21181;-77
2020/12/04 02:31:52;;;;;;;146.80;63.73;;;;;;;-3.46;88.60;97858.21;4201600;83;21154;-78
2020/12/04 02:37:53;;;;;;;141.47;60.73;;;;;;;-3.46;88.96;97837.37;4198090;84;21326;-77
2020/12/04 02:43:55;;;;;;;128.03;54.53;;;;;;;-3.34;89.26;97822.83;4195877;83;21771;-77
2020/12/04 02:49:56;;;;;;;121.00;53.47;;;;;;;-3.17;89.69;97804.11;4200324;83;21180;-77
2020/12/04 02:55:58;;;;;;;108.20;46.97;;;;;;;-2.93;89.54;97800.95;4206412;83;21746;-77
2020/12/04 03:01:59;;;;;;;112.10;48.07;;;;;;;-2.76;89.79;97825.84;4195274;83;21217;-76
2020/12/04 03:08:01;;;;;;;113.47;47.90;;;;;;;-2.60;89.78;97804.70;4202561;83;21331;-77
2020/12/04 03:14:02;;;;;;;116.13;49.53;;;;;;;-2.63;89.67;97801.32;4191356;81;22317;-77
2020/12/04 03:20:05;;;;;;;122.67;51.57;;;;;;;-2.46;89.98;97803.96;4193240;83;21240;-77
2020/12/04 03:26:06;;;;;;;122.13;54.20;;;;;;;-2.65;89.03;97800.30;4191263;83;21144;-77
2020/12/04 03:32:08;;;;;;;110.60;49.63;;;;;;;-2.59;90.11;97806.27;4195581;83;21153;-76
2020/12/04 03:38:10;;;;;;;110.00;50.00;;;;;;;-2.49;89.68;97801.34;4192239;84;21199;-77
2020/12/04 03:44:11;;;;;;;122.30;51.43;;;;;;;-2.54;89.42;97802.88;4189155;84;21356;-77
2020/12/04 03:50:12;;;;;;;119.07;49.20;;;;;;;-2.56;89.47;97805.08;4193248;84;21349;-76
2020/12/04 03:56:14;;;;;;;123.07;54.73;;;;;;;-2.61;89.08;97807.13;4195450;83;21194;-77
2020/12/04 04:02:15;;;;;;;126.53;56.50;;;;;;;-2.88;88.67;97793.53;4189486;84;21247;-77
2020/12/04 04:08:17;;;;;;;119.40;54.40;;;;;;;-3.01;88.83;97797.19;4199996;83;21635;-77
2020/12/04 04:14:18;;;;;;;226.23;98.90;;;;;;;-3.19;88.87;97809.55;4199543;82;21228;-77
2020/12/04 04:20:20;;;;;;;281.10;114.50;;;;;;;-3.24;88.98;97803.23;4218950;82;21369;-77
2020/12/04 04:26:21;;;;;;;270.50;110.80;;;;;;;-3.12;89.36;97783.87;4220283;82;21314;-77
2020/12/04 04:32:23;;;;;;;220.23;95.33;;;;;;;-3.18;89.30;97784.34;4212447;82;21193;-77
2020/12/04 04:38:24;;;;;;;142.40;61.87;;;;;;;-3.17;88.79;97781.89;4196775;82;21360;-77
2020/12/04 04:44:26;;;;;;;123.33;53.57;;;;;;;-3.33;88.28;97779.70;4215138;82;21230;-76
2020/12/04 04:50:27;;;;;;;226.00;97.83;;;;;;;-3.56;88.17;97780.94;4207886;82;21319;-76
2020/12/04 04:56:28;;;;;;;264.00;111.20;;;;;;;-3.61;88.35;97797.13;4213256;82;21542;-77
2020/12/04 05:02:30;;;;;;;281.57;120.77;;;;;;;-3.58;88.52;97789.81;4219191;82;21178;-77
2020/12/04 05:08:31;;;;;;;283.53;123.50;;;;;;;-3.64;88.17;97800.44;4219693;82;21324;-77
2020/12/04 05:14:33;;;;;;;278.00;121.67;;;;;;;-3.74;88.31;97777.19;4201467;82;21197;-76
2020/12/04 05:20:36;;;;;;;276.50;119.77;;;;;;;-3.79;88.35;97782.70;4209556;82;21637;-77
2020/12/04 05:26:38;;;;;;;279.63;126.07;;;;;;;-3.83;88.25;97789.75;4226264;82;21170;-77
2020/12/04 05:32:40;;;;;;;279.37;121.30;;;;;;;-3.98;88.33;97790.99;4220942;82;21368;-76
2020/12/04 05:38:51;;;;;;;283.90;123.37;;;;;;;-4.00;88.22;97786.49;4223720;82;21697;-76
2020/12/04 05:44:54;;;;;;;293.13;127.90;;;;;;;-4.12;88.00;97804.98;4218844;84;21848;-76
2020/12/04 05:50:55;;;;;;;284.43;124.07;;;;;;;-4.07;88.37;97791.48;4209166;82;21202;-76
2020/12/04 05:57:01;;;;;;;293.43;123.70;;;;;;;-4.11;88.30;97781.73;4229043;82;21592;-76
2020/12/04 06:03:04;;;;;;;294.67;124.87;;;;;;;-4.06;88.50;97783.73;4222051;84;21250;-76
2020/12/04 06:09:07;;;;;;;297.13;124.13;;;;;;;-3.98;88.23;97788.86;4221780;82;21211;-76
2020/12/04 06:15:32;;;;;;;294.27;122.33;;;;;;;-3.89;88.43;97789.13;4215316;82;21349;-76
2020/12/04 06:21:46;;;;;;;316.30;135.07;;;;;;;-4.10;87.64;97801.46;4175325;83;21179;-76
2020/12/04 06:27:48;;;;;;;323.13;138.60;;;;;;;-4.18;88.12;97800.11;4169144;83;21915;-77
2020/12/04 06:33:50;;;;;;;297.47;124.97;;;;;;;-4.15;88.07;97807.50;4165156;83;21573;-77
2020/12/04 06:39:51;;;;;;;309.63;131.70;;;;;;;-4.21;88.12;97812.75;4158992;83;21667;-77
2020/12/04 06:45:53;;;;;;;321.43;135.37;;;;;;;-4.15;88.22;97814.95;4173075;83;21201;-76
2020/12/04 06:52:01;;;;;;;297.07;127.20;;;;;;;-4.22;88.25;97819.97;4167754;83;21200;-76
2020/12/04 06:58:03;;;;;;;298.33;127.97;;;;;;;-4.20;88.49;97828.47;4161223;83;21199;-76
2020/12/04 07:04:05;;;;;;;318.00;138.10;;;;;;;-4.12;88.73;97854.42;4172071;83;21633;-77
2020/12/04 07:10:06;;;;;;;315.17;139.87;;;;;;;-4.00;88.81;97871.23;4167565;83;21587;-77
2020/12/04 07:16:10;;;;;;;280.47;123.93;;;;;;;-3.76;89.25;97867.08;4185052;82;21638;-77
2020/12/04 07:22:11;;;;;;;309.67;140.97;;;;;;;-3.57;89.00;97876.98;4226491;82;21175;-77
2020/12/04 07:28:12;;;;;;;323.47;144.07;;;;;;;-3.40;89.09;97862.31;4220744;82;21338;-77
2020/12/04 07:34:20;;;;;;;339.50;151.20;;;;;;;-3.25;89.24;97844.48;4224562;82;21179;-77
2020/12/04 07:40:22;;;;;;;334.00;141.03;;;;;;;-3.08;89.32;97881.19;4216911;82;21280;-77
2020/12/04 07:46:23;;;;;;;313.27;141.10;;;;;;;-2.91;89.33;97875.08;4230705;82;21357;-77
2020/12/04 07:52:29;;;;;;;313.43;141.27;;;;;;;-2.79;89.38;97876.56;4219675;82;21224;-77
2020/12/04 07:58:31;;;;;;;;;;;;;;;-2.72;89.16;97863.47;4215079;82;21360;-77
2020/12/04 08:04:35;;;;;;;315.80;141.30;;;;;;;-2.61;89.51;97864.19;4210960;82;20602;-77
2020/12/04 08:10:36;;;;;;;298.37;133.27;;;;;;;-2.41;89.65;97874.24;4216520;82;21192;-78
2020/12/04 08:16:37;;;;;;;315.73;143.20;;;;;;;-2.19;89.51;97874.05;4207286;82;21355;-78
2020/12/04 08:22:39;;;;;;;310.43;144.40;;;;;;;-2.07;89.66;97868.80;4179473;84;21179;-78
2020/12/04 08:28:54;;;;;;;345.27;167.70;;;;;;;-1.94;89.75;97849.05;4181133;84;21355;-78
2020/12/04 08:35:08;;;;;;;331.83;163.40;;;;;;;-1.74;89.96;97848.91;4178631;84;21237;-78
2020/12/04 08:41:10;;;;;;;292.00;142.80;;;;;;;-1.63;90.25;97848.78;4178706;84;21210;-78
2020/12/04 08:47:16;;;;;;;299.43;144.27;;;;;;;-1.48;90.11;97862.18;4180083;84;21809;-78
2020/12/04 08:53:22;;;;;;;303.73;153.30;;;;;;;-1.29;90.33;97865.23;4177080;84;21379;-78
2020/12/04 08:59:23;;;;;;;295.37;145.33;;;;;;;-1.16;90.44;97868.25;4178449;84;21194;-78
2020/12/04 09:05:25;;;;;;;289.10;142.13;;;;;;;-0.97;90.40;97865.91;4179895;84;21202;-78
2020/12/04 09:11:33;;;;;;;320.17;162.60;;;;;;;-0.74;90.66;97857.75;4184495;84;21324;-78
2020/12/04 09:17:35;;;;;;;277.80;141.07;;;;;;;-0.49;90.90;97856.73;4192167;82;21367;-79
2020/12/04 09:23:38;;;;;;;286.03;136.97;;;;;;;-0.34;90.54;97858.80;4215222;82;21325;-79
2020/12/04 09:29:40;;;;;;;279.23;139.63;;;;;;;-0.28;90.53;97852.09;4224555;82;21213;-79
2020/12/04 09:35:42;;;;;;;287.40;141.67;;;;;;;-0.10;90.76;97847.58;4212754;82;22281;-80
2020/12/04 09:41:43;;;;;;;252.38;123.22;;;;;;;0.62;91.80;97833.94;4216228;82;21807;-79
2020/12/04 09:47:45;;;;;;;270.97;135.97;;;;;;;1.43;90.62;97839.27;4220843;82;21628;-79
2020/12/04 09:53:46;;;;;;;269.87;131.22;;;;;;;1.91;90.25;97826.67;4220117;82;21375;-79
2020/12/04 09:59:48;;;;;;;236.25;117.35;;;;;;;1.95;89.38;97830.23;4210185;82;21333;-80
2020/12/04 10:05:49;;;;;;;222.78;111.28;;;;;;;2.49;89.94;97817.14;4228120;82;21216;-79
2020/12/04 10:11:52;;;;;;;146.40;81.70;;;;;;;3.48;90.30;97799.02;4220072;82;21801;-81
2020/12/04 10:17:54;;;;;;;125.05;68.83;;;;;;;4.30;90.14;97786.01;4254603;81;21657;-82
2020/12/04 10:23:55;;;;;;;95.38;52.95;;;;;;;4.99;89.29;97767.08;4267457;81;21206;-82
2020/12/04 10:29:56;;;;;;;92.25;47.03;;;;;;;5.50;88.24;97765.38;4244982;81;21709;-83
2020/12/04 10:36:03;;;;;;;77.62;40.12;;;;;;;5.85;87.98;97753.58;4279844;81;21209;-82
2020/12/04 10:42:05;;;;;;;71.87;39.42;;;;;;;6.02;87.25;97757.03;4249201;81;21707;-83
2020/12/04 10:48:06;;;;;;;112.40;50.85;;;;;;;6.19;86.88;97745.53;4283897;81;21324;-83
2020/12/04 10:54:08;;;;;;;86.63;44.73;;;;;;;6.20;85.97;97739.53;4265626;81;21641;-83
2020/12/04 11:00:09;;;;;;;88.50;47.78;;;;;;;6.23;85.77;97758.56;4295951;81;21346;-83
2020/12/04 11:06:10;;;;;;;89.45;47.33;;;;;;;6.38;86.23;97732.28;4248592;81;21781;-84
2020/12/04 11:12:12;;;;;;;81.47;43.45;;;;;;;6.67;86.24;97730.54;4230461;81;21226;-85
2020/12/04 11:18:13;;;;;;;82.27;42.60;;;;;;;6.88;85.68;97728.72;4258853;81;21648;-84
2020/12/04 11:24:15;;;;;;;73.15;40.25;;;;;;;7.08;84.66;97718.33;4276613;81;21372;-85
2020/12/04 11:30:20;;;;;;;63.00;35.65;;;;;;;7.21;84.87;97712.16;4286360;81;21801;-85
2020/12/04 11:36:22;;;;;;;55.50;32.20;;;;;;;7.28;84.22;97686.31;4255626;81;21788;-85
2020/12/04 11:42:27;;;;;;;54.03;29.05;;;;;;;7.37;84.29;97666.91;4275049;81;21343;-85
2020/12/04 11:48:27;;;;;;;59.77;30.95;;;;;;;7.55;83.84;97672.58;4265509;81;21738;-86
2020/12/04 11:54:28;;;;;;;37.05;21.60;;;;;;;7.59;83.58;97657.61;4280252;81;21204;-85
2020/12/04 12:00:30;;;;;;;12.07;7.60;;;;;;;8.04;82.76;97626.88;4269148;81;21241;-87
2020/12/04 12:06:32;;;;;;;13.95;7.35;;;;;;;8.55;77.24;97636.75;4281111;81;21201;-86
2020/12/04 14:02:31;;;;;;;16.40;9.33;;;;;;;8.96;69.68;97692.37;4442880;79;22981;-87
2020/12/04 14:08:33;;;;;;;14.43;8.90;;;;;;;8.77;70.25;97692.05;4382706;80;21222;-87
2020/12/04 14:14:34;;;;;;;17.77;10.28;;;;;;;8.67;69.90;97700.45;4373531;80;21190;-86
2020/12/04 14:20:38;;;;;;;19.75;11.30;;;;;;;8.61;69.27;97686.23;4375786;80;21194;-87
2020/12/04 14:26:39;;;;;;;17.27;10.50;;;;;;;8.47;68.94;97706.11;4353412;79;21149;-84
2020/12/04 14:32:42;;;;;;;16.30;9.53;;;;;;;8.40;69.24;97700.68;4384580;79;21150;-87
2020/12/04 14:45:15;;;;;;;21.48;11.40;;;;;;;8.13;69.60;97708.27;4344788;80;21736;-86
2020/12/04 14:51:25;;;;;;;22.82;13.72;;;;;;;8.03;69.17;97703.58;4318900;81;21189;-87
2020/12/04 14:57:27;;;;;;;21.02;11.68;;;;;;;8.01;68.90;97714.87;4343303;81;21159;-87
2020/12/04 15:03:31;;;;;;;22.85;12.43;;;;;;;7.81;69.67;97718.53;4331031;80;21359;-85
2020/12/04 15:09:32;;;;;;;22.58;12.33;;;;;;;7.76;69.33;97715.42;4338228;80;21209;-86
2020/12/04 15:15:34;;;;;;;26.80;14.38;;;;;;;7.63;69.95;97717.73;4341232;80;21166;-87
2020/12/04 15:21:39;;;;;;;30.37;15.13;;;;;;;7.59;69.97;97733.30;4339592;80;21639;-86
2020/12/04 15:27:40;;;;;;;24.15;12.50;;;;;;;7.58;69.99;97752.74;4338779;80;21225;-85
2020/12/04 15:33:42;;;;;;;21.95;13.48;;;;;;;7.63;69.94;97763.24;4337373;80;21200;-87
2020/12/04 15:39:45;;;;;;;23.62;13.72;;;;;;;7.61;69.85;97772.40;4342169;80;21210;-85
2020/12/04 15:45:47;;;;;;;19.60;11.35;;;;;;;7.62;69.64;97772.59;4337218;80;21154;-87
2020/12/04 15:51:49;;;;;;;15.83;9.40;;;;;;;7.68;69.44;97780.00;4335232;80;21179;-87
2020/12/04 15:57:51;;;;;;;21.55;11.53;;;;;;;7.69;69.47;97791.09;4343793;80;21203;-87
2020/12/04 16:03:55;;;;;;;25.62;14.50;;;;;;;7.67;69.78;97795.38;4328762;80;21191;-88
2020/12/04 16:09:57;;;;;;;31.07;16.50;;;;;;;7.57;70.08;97805.63;4347919;80;21193;-87
2020/12/04 16:15:58;;;;;;;45.80;24.25;;;;;;;7.48;70.26;97813.38;4345495;80;21172;-86
2020/12/04 16:22:00;;;;;;;50.08;25.80;;;;;;;7.39;70.59;97807.52;4337468;80;21166;-87
2020/12/04 16:28:01;;;;;;;36.45;17.57;;;;;;;7.24;70.80;97818.91;4342846;80;21584;-87
2020/12/04 16:34:08;;;;;;;56.75;26.52;;;;;;;7.07;71.35;97816.87;4336828;81;21179;-87
2020/12/04 16:40:10;;;;;;;;;;;;;;;7.04;71.67;97823.07;4357586;80;21181;-88
2020/12/04 16:46:11;;;;;;;37.33;17.62;;;;;;;7.04;71.73;97831.23;4348703;81;20189;-86
2020/12/04 16:52:13;;;;;;;34.95;17.35;;;;;;;7.09;71.73;97833.60;4338894;80;21147;-86
2020/12/04 16:58:14;;;;;;;33.75;15.88;;;;;;;7.12;71.67;97859.27;4335208;80;21210;-87
2020/12/04 17:04:16;;;;;;;34.83;16.40;;;;;;;7.04;71.94;97873.98;4336715;81;21605;-87
2020/12/04 17:10:19;;;;;;;42.38;21.87;;;;;;;6.92;72.04;97873.69;4343412;80;21180;-88
2020/12/04 17:16:20;;;;;;;49.95;24.30;;;;;;;6.71;72.10;97879.55;4338108;80;21702;-87
2020/12/04 17:22:22;;;;;;;46.60;23.95;;;;;;;6.44;72.38;97876.20;4342907;80;21206;-89
2020/12/04 17:28:25;;;;;;;47.93;24.77;;;;;;;6.22;72.54;97877.94;4333180;80;22333;-89
2020/12/04 17:34:27;;;;;;;49.95;23.65;;;;;;;5.93;72.52;97884.23;4342805;80;22264;-87
2020/12/04 17:40:28;;;;;;;47.33;23.02;;;;;;;5.51;72.76;97895.86;4337945;80;21213;-87
2020/12/04 17:46:30;;;;;;;36.05;20.65;;;;;;;5.04;73.35;97897.52;4337690;81;21222;-87
2020/12/04 17:52:32;;;;;;;44.25;21.30;;;;;;;4.95;73.80;97914.63;4331522;80;22063;-88
2020/12/04 17:58:34;;;;;;;42.58;22.32;;;;;;;4.80;73.92;97908.19;4212910;80;10000275;-88
2020/12/04 18:04:37;;;;;;;37.40;20.45;;;;;;;4.58;74.24;97908.42;4344191;80;21659;-87
2020/12/04 18:10:42;;;;;;;54.80;27.85;;;;;;;4.32;74.40;97913.74;4343833;80;21199;-88
2020/12/04 18:16:43;;;;;;;62.62;31.52;;;;;;;4.28;74.96;97908.05;4333502;80;21177;-88
2020/12/04 18:22:45;;;;;;;75.20;39.60;;;;;;;4.08;75.23;97911.94;4349403;80;21130;-87
2020/12/04 18:28:48;;;;;;;65.08;32.58;;;;;;;3.87;75.62;97920.42;4337464;80;21158;-87
2020/12/04 18:34:49;;;;;;;67.00;34.60;;;;;;;3.74;76.15;97926.34;4334675;80;21574;-87
2020/12/04 18:40:51;;;;;;;64.22;33.63;;;;;;;3.84;77.43;97927.91;4333842;80;21524;-87
2020/12/04 18:46:53;;;;;;;66.87;32.05;;;;;;;3.95;77.39;97916.72;4344537;80;22120;-88
2020/12/04 18:52:54;;;;;;;63.35;31.17;;;;;;;4.07;77.31;97914.44;4336901;80;21181;-87
2020/12/04 18:59:01;;;;;;;57.65;27.73;;;;;;;4.24;77.37;97916.70;4330341;80;21183;-87
2020/12/04 19:05:04;;;;;;;47.38;24.57;;;;;;;4.52;77.48;97900.94;4330945;80;21197;-87
2020/12/04 19:11:07;;;;;;;47.83;24.12;;;;;;;4.68;77.40;97909.74;4329876;80;21175;-87
2020/12/04 19:17:08;;;;;;;248.78;100.40;;;;;;;4.76;77.35;97918.20;4323835;81;21366;-88
2020/12/04 19:23:10;;;;;;;69.40;31.62;;;;;;;4.68;77.10;97917.88;4326899;81;21203;-87
2020/12/04 19:29:12;;;;;;;62.20;29.02;;;;;;;4.57;77.17;97923.69;4335667;80;21338;-88
2020/12/04 19:35:16;;;;;;;62.45;29.20;;;;;;;4.41;77.04;97918.38;4330203;80;21658;-87
2020/12/04 19:41:18;;;;;;;65.25;29.65;;;;;;;4.14;77.28;97920.77;4333942;80;21182;-87
2020/12/04 19:47:21;;;;;;;70.70;36.58;;;;;;;3.93;77.56;97926.35;4339145;80;21215;-87
2020/12/04 19:53:28;;;;;;;58.90;30.68;;;;;;;3.69;77.98;97939.59;4328483;80;21193;-89
2020/12/04 19:59:30;;;;;;;;;;;;;;;3.62;78.05;97948.14;4217492;80;10000402;-88
2020/12/04 20:05:31;;;;;;;79.45;36.13;;;;;;;3.46;79.06;97945.45;4333084;80;20311;-87
2020/12/04 20:11:33;;;;;;;51.60;25.85;;;;;;;3.47;80.58;97951.09;4331847;80;21183;-86
2020/12/04 20:17:34;;;;;;;50.25;25.97;;;;;;;4.01;80.40;97945.66;4334090;80;21170;-86
2020/12/04 20:23:37;;;;;;;45.03;23.02;;;;;;;4.68;79.69;97955.83;4337441;80;21701;-87
2020/12/04 20:29:39;;;;;;;48.98;25.15;;;;;;;5.18;78.89;97979.92;4334969;80;21192;-86
2020/12/04 20:35:41;;;;;;;40.65;21.15;;;;;;;5.38;78.36;97981.39;4339719;80;21168;-87
2020/12/04 20:41:47;;;;;;;38.92;21.40;;;;;;;5.37;78.32;97983.11;4339617;80;21166;-87
2020/12/04 20:47:50;;;;;;;38.00;19.95;;;;;;;5.35;78.01;97983.48;4329971;80;21219;-87
2020/12/04 20:53:52;;;;;;;49.05;24.80;;;;;;;5.20;78.17;97981.67;4326106;80;21198;-87
2020/12/04 20:59:53;;;;;;;73.22;35.40;;;;;;;5.03;78.40;97984.13;4336375;80;21246;-87
2020/12/04 21:05:55;;;;;;;36.88;20.17;;;;;;;5.01;78.57;97993.19;4329675;81;21203;-87
2020/12/04 21:12:06;;;;;;;40.40;22.05;;;;;;;4.91;78.68;97981.57;4324525;81;21171;-87
2020/12/04 21:18:08;;;;;;;41.10;19.42;;;;;;;5.14;78.76;97985.08;4334463;80;21736;-87
2020/12/04 21:24:09;;;;;;;29.77;15.53;;;;;;;5.36;78.40;97999.95;4333282;81;21777;-87
2020/12/04 21:30:11;;;;;;;33.55;17.98;;;;;;;5.57;78.35;97995.42;4335196;80;21972;-87
2020/12/04 21:36:16;;;;;;;33.30;17.23;;;;;;;5.48;78.13;97993.55;4331047;80;21781;-88
2020/12/04 21:42:18;;;;;;;33.80;16.17;;;;;;;5.36;78.15;97987.75;4334306;80;21173;-87
2020/12/04 21:48:20;;;;;;;28.90;16.52;;;;;;;5.35;78.43;97987.55;4333101;80;21191;-88
2020/12/04 21:54:21;;;;;;;46.30;21.42;;;;;;;5.44;78.42;97983.20;4325198;81;21337;-86
2020/12/04 22:00:23;;;;;;;28.05;14.90;;;;;;;5.57;78.12;97985.36;4317386;81;21198;-85
2020/12/04 22:06:25;;;;;;;30.57;15.48;;;;;;;5.71;78.21;97987.48;4285029;81;21202;-87
2020/12/04 22:12:32;;;;;;;25.43;12.05;;;;;;;5.85;78.02;97973.56;4288620;81;21193;-87
2020/12/04 22:18:34;;;;;;;24.82;13.15;;;;;;;6.09;77.69;97976.39;4285918;81;21229;-87
2020/12/04 22:24:35;;;;;;;23.80;12.25;;;;;;;6.38;77.17;97993.23;4287998;81;21648;-86
2020/12/04 22:30:38;;;;;;;24.92;13.55;;;;;;;6.46;76.88;97989.44;4295364;81;21160;-86
2020/12/04 22:36:40;;;;;;;28.35;13.08;;;;;;;6.53;77.14;98003.09;4301705;81;21158;-87
2020/12/04 22:42:42;;;;;;;23.73;12.80;;;;;;;6.57;76.85;98008.02;4270851;81;21196;-86
2020/12/04 22:48:43;;;;;;;31.07;15.68;;;;;;;6.63;76.88;98001.08;4286198;81;21769;-87
2020/12/04 22:54:46;;;;;;;25.92;15.38;;;;;;;6.56;76.84;98002.38;4286077;81;21187;-87
2020/12/04 23:00:49;;;;;;;21.68;12.00;;;;;;;6.46;76.60;98001.67;4279436;81;21191;-87
2020/12/04 23:06:54;;;;;;;26.42;14.40;;;;;;;6.66;76.84;97996.25;4275165;81;21184;-86
2020/12/04 23:12:56;;;;;;;25.70;13.70;;;;;;;6.83;76.42;97998.37;4290803;81;21239;-87
2020/12/04 23:18:58;;;;;;;21.05;11.57;;;;;;;6.79;76.34;97991.33;4279161;81;21206;-87
2020/12/04 23:25:03;;;;;;;26.52;14.05;;;;;;;6.90;76.09;97996.30;4299831;81;22270;-87
2020/12/04 23:31:04;;;;;;;25.52;14.13;;;;;;;6.88;75.94;98003.47;4300458;82;21553;-88
2020/12/04 23:37:08;;;;;;;23.87;13.70;;;;;;;6.68;76.09;97993.95;4291443;81;21713;-86
2020/12/04 23:43:10;;;;;;;28.30;14.68;;;;;;;6.54;76.37;97998.45;4279886;81;21680;-87
2020/12/04 23:49:12;;;;;;;22.85;12.13;;;;;;;6.63;76.18;97994.85;4276572;81;21787;-87
2020/12/04 23:55:14;;;;;;;26.17;12.28;;;;;;;6.75;76.02;97998.69;4304696;82;21178;-87
